createdAt,value
2018-06-27T00:00:44.847Z,3.60
2018-06-27T00:03:17.593Z,3.90
2018-06-27T00:05:51.709Z,3.57
2018-06-27T00:08:26.098Z,5.60
2018-06-27T00:10:59.932Z,3.87
2018-06-27T00:13:32.918Z,3.57
2018-06-27T00:16:06.315Z,3.60
2018-06-27T00:18:40.940Z,3.40
2018-06-27T00:21:14.235Z,3.47
2018-06-27T00:23:48.655Z,3.73
2018-06-27T00:26:23.743Z,3.70
2018-06-27T00:28:57.804Z,3.73
2018-06-27T00:31:32.633Z,3.90
2018-06-27T00:34:07.926Z,3.60
2018-06-27T00:36:41.577Z,3.50
2018-06-27T00:39:17.023Z,3.63
2018-06-27T00:41:51.547Z,3.70
2018-06-27T00:44:25.866Z,3.80
2018-06-27T00:47:02.029Z,3.90
2018-06-27T00:49:36.241Z,4.20
2018-06-27T00:52:11.782Z,3.80
2018-06-27T00:54:46.414Z,3.70
2018-06-27T00:57:21.141Z,3.50
2018-06-27T00:59:55.049Z,3.73
2018-06-27T01:02:29.358Z,3.70
2018-06-27T01:05:03.379Z,3.70
2018-06-27T01:07:37.185Z,3.77
2018-06-27T01:10:11.400Z,3.90
2018-06-27T01:12:45.105Z,3.53
2018-06-27T01:15:18.269Z,3.87
2018-06-27T01:17:59.169Z,3.87
2018-06-27T01:20:34.614Z,3.63
2018-06-27T01:23:07.653Z,3.80
2018-06-27T01:25:42.436Z,4.13
2018-06-27T01:28:16.646Z,3.70
2018-06-27T01:30:50.759Z,3.80
2018-06-27T01:33:25.050Z,3.80
2018-06-27T01:35:58.577Z,3.70
2018-06-27T01:38:31.871Z,3.80
2018-06-27T01:41:06.804Z,3.90
2018-06-27T01:43:41.613Z,3.97
2018-06-27T01:46:15.235Z,3.50
2018-06-27T01:48:48.427Z,3.20
2018-06-27T01:51:22.643Z,3.67
2018-06-27T01:53:56.449Z,3.87
2018-06-27T01:56:30.567Z,4.00
2018-06-27T01:59:03.964Z,3.60
2018-06-27T02:01:39.814Z,3.67
2018-06-27T02:04:13.930Z,3.30
2018-06-27T02:06:48.125Z,3.93
2018-06-27T02:09:21.513Z,4.03
2018-06-27T02:11:54.936Z,4.30
2018-06-27T02:14:30.380Z,4.43
2018-06-27T02:17:03.645Z,4.00
2018-06-27T02:19:37.176Z,3.70
2018-06-27T02:22:11.604Z,4.30
2018-06-27T02:24:44.882Z,4.23
2018-06-27T02:27:20.336Z,4.43
2018-06-27T02:29:54.630Z,3.70
2018-06-27T02:32:28.047Z,4.00
2018-06-27T02:35:02.445Z,4.33
2018-06-27T02:37:36.074Z,3.60
2018-06-27T02:40:10.286Z,3.90
2018-06-27T02:42:43.888Z,4.03
2018-06-27T02:45:17.185Z,4.17
2018-06-27T02:47:51.704Z,4.40
2018-06-27T02:50:25.413Z,4.00
2018-06-27T02:52:59.015Z,4.20
2018-06-27T02:55:31.792Z,4.60
2018-06-27T02:58:07.238Z,4.50
2018-06-27T03:00:42.199Z,4.17
2018-06-27T03:03:16.667Z,4.03
2018-06-27T03:05:51.029Z,3.77
2018-06-27T03:08:25.415Z,4.37
2018-06-27T03:11:00.161Z,4.37
2018-06-27T03:13:34.264Z,4.57
2018-06-27T03:16:09.587Z,4.07
2018-06-27T03:18:56.119Z,4.30
2018-06-27T03:21:29.725Z,4.20
2018-06-27T03:24:04.142Z,4.10
2018-06-27T03:26:39.254Z,4.50
2018-06-27T03:29:12.696Z,4.10
2018-06-27T03:31:47.613Z,4.30
2018-06-27T03:34:21.517Z,4.73
2018-06-27T03:36:57.889Z,5.23
2018-06-27T03:39:32.173Z,4.80
2018-06-27T03:42:07.449Z,4.83
2018-06-27T03:44:41.912Z,5.10
2018-06-27T03:47:16.363Z,5.60
2018-06-27T03:49:50.694Z,4.60
2018-06-27T03:52:25.232Z,5.00
2018-06-27T03:55:00.475Z,5.10
2018-06-27T03:57:33.146Z,5.07
2018-06-27T04:00:08.259Z,4.83
2018-06-27T04:02:42.625Z,5.20
2018-06-27T04:05:17.432Z,5.07
2018-06-27T04:07:52.416Z,5.00
2018-06-27T04:10:26.801Z,5.10
2018-06-27T04:13:01.823Z,4.77
2018-06-27T04:15:36.856Z,4.30
2018-06-27T04:18:12.301Z,4.60
2018-06-27T04:20:47.409Z,4.50
2018-06-27T04:23:23.087Z,4.77
2018-06-27T04:25:56.794Z,4.17
2018-06-27T04:28:31.216Z,4.70
2018-06-27T04:31:05.017Z,5.37
2018-06-27T04:33:39.336Z,4.87
2018-06-27T04:36:14.731Z,5.23
2018-06-27T04:38:49.206Z,4.97
2018-06-27T04:41:26.182Z,5.10
2018-06-27T04:44:01.225Z,4.70
2018-06-27T04:46:36.663Z,4.23
2018-06-27T04:49:11.902Z,4.57
2018-06-27T04:51:47.962Z,5.07
2018-06-27T04:54:21.357Z,4.57
2018-06-27T04:56:56.976Z,4.80
2018-06-27T04:59:31.427Z,5.30
2018-06-27T05:02:05.848Z,5.27
2018-06-27T05:04:41.081Z,5.47
2018-06-27T05:07:17.474Z,5.20
2018-06-27T05:09:55.561Z,6.00
2018-06-27T05:12:30.499Z,6.20
2018-06-27T05:15:05.329Z,5.87
2018-06-27T05:17:39.438Z,5.50
2018-06-27T05:20:13.654Z,5.73
2018-06-27T05:22:46.034Z,5.77
2018-06-27T05:25:20.652Z,5.53
2018-06-27T05:27:53.953Z,5.97
2018-06-27T05:30:28.264Z,5.50
2018-06-27T05:33:03.712Z,5.83
2018-06-27T05:35:37.821Z,6.40
2018-06-27T05:38:11.741Z,5.90
2018-06-27T05:40:46.458Z,6.23
2018-06-27T05:43:20.061Z,6.63
2018-06-27T05:45:53.354Z,5.70
2018-06-27T05:48:27.979Z,6.37
2018-06-27T05:51:01.274Z,6.20
2018-06-27T05:53:36.936Z,5.80
2018-06-27T05:56:10.906Z,5.23
2018-06-27T05:58:47.613Z,5.50
2018-06-27T06:01:21.627Z,4.83
2018-06-27T06:03:56.867Z,5.43
2018-06-27T06:06:30.769Z,5.73
2018-06-27T06:09:05.189Z,5.40
2018-06-27T06:11:39.350Z,5.17
2018-06-27T06:14:12.904Z,4.97
2018-06-27T06:16:47.119Z,5.47
2018-06-27T06:19:20.112Z,5.03
2018-06-27T06:21:53.912Z,5.60
2018-06-27T06:24:29.252Z,5.37
2018-06-27T06:27:03.583Z,5.70
2018-06-27T06:29:37.072Z,5.73
2018-06-27T06:32:11.779Z,6.20
2018-06-27T06:34:45.299Z,6.17
2018-06-27T06:37:21.122Z,6.70
2018-06-27T06:39:54.858Z,6.80
2018-06-27T06:42:28.974Z,6.53
2018-06-27T06:45:03.600Z,6.53
2018-06-27T06:47:37.512Z,6.30
2018-06-27T06:50:11.318Z,6.70
2018-06-27T06:52:45.516Z,6.03
2018-06-27T06:55:20.254Z,5.80
2018-06-27T06:57:55.228Z,6.17
2018-06-27T07:00:29.681Z,5.97
2018-06-27T07:03:03.209Z,6.80
2018-06-27T07:05:38.402Z,6.30
2018-06-27T07:08:13.799Z,6.23
2018-06-27T07:10:47.397Z,6.10
2018-06-27T07:13:22.608Z,6.40
2018-06-27T07:15:58.282Z,5.93
2018-06-27T07:18:33.727Z,6.83
2018-06-27T07:21:09.479Z,6.37
2018-06-27T07:23:44.208Z,5.83
2018-06-27T07:26:18.731Z,6.17
2018-06-27T07:28:54.216Z,5.40
2018-06-27T07:31:29.305Z,5.60
2018-06-27T07:34:04.347Z,5.70
2018-06-27T07:36:39.090Z,6.27
2018-06-27T07:39:14.724Z,6.20
2018-06-27T07:41:50.271Z,6.13
2018-06-27T07:44:25.312Z,6.10
2018-06-27T07:47:00.742Z,5.10
2018-06-27T07:49:35.285Z,6.53
2018-06-27T07:52:09.593Z,5.10
2018-06-27T07:54:44.922Z,5.33
2018-06-27T07:57:20.486Z,5.13
2018-06-27T07:59:55.929Z,5.67
2018-06-27T08:02:31.037Z,5.63
2018-06-27T08:05:07.405Z,6.10
2018-06-27T08:07:41.797Z,5.90
2018-06-27T08:10:17.401Z,6.00
2018-06-27T08:12:52.610Z,6.57
2018-06-27T08:15:26.648Z,6.43
2018-06-27T08:18:00.780Z,6.03
2018-06-27T08:20:35.794Z,6.27
2018-06-27T08:23:10.423Z,6.60
2018-06-27T08:25:49.144Z,6.73
2018-06-27T08:28:25.207Z,6.40
2018-06-27T08:31:01.468Z,7.37
2018-06-27T08:33:37.669Z,6.90
2018-06-27T08:36:13.278Z,6.93
2018-06-27T08:38:47.804Z,8.33
2018-06-27T08:41:22.018Z,8.53
2018-06-27T08:43:57.228Z,7.83
2018-06-27T08:46:32.689Z,7.87
2018-06-27T08:49:07.225Z,8.13
2018-06-27T08:51:43.591Z,8.20
2018-06-27T08:54:18.216Z,7.90
2018-06-27T08:56:52.432Z,7.87
2018-06-27T08:59:27.672Z,7.73
2018-06-27T09:02:01.274Z,7.30
2018-06-27T09:04:35.593Z,8.10
2018-06-27T09:07:10.838Z,7.80
2018-06-27T09:09:44.433Z,7.58
2018-06-27T09:12:19.878Z,8.18
2018-06-27T09:14:54.093Z,8.58
2018-06-27T09:17:28.719Z,8.18
2018-06-27T09:20:03.753Z,7.85
2018-06-27T09:22:38.146Z,6.72
2018-06-27T09:25:12.800Z,6.92
2018-06-27T09:27:47.118Z,6.55
2018-06-27T09:30:22.563Z,7.28
2018-06-27T09:32:56.272Z,6.50
2018-06-27T09:35:31.406Z,6.05
2018-06-27T09:38:05.494Z,5.87
2018-06-27T09:40:41.679Z,6.53
2018-06-27T09:43:15.201Z,5.80
2018-06-27T09:45:49.292Z,5.40
2018-06-27T09:48:22.973Z,5.92
2018-06-27T09:50:57.723Z,5.70
2018-06-27T09:53:31.018Z,4.90
2018-06-27T09:56:07.491Z,4.53
2018-06-27T09:58:40.781Z,4.70
2018-06-27T10:01:14.994Z,4.78
2018-06-27T10:03:49.417Z,4.20
2018-06-27T10:06:23.635Z,3.98
2018-06-27T10:08:57.746Z,4.30
2018-06-27T10:11:31.655Z,3.92
2018-06-27T10:14:05.869Z,4.37
2018-06-27T10:16:39.574Z,4.25
2018-06-27T10:19:13.994Z,3.77
2018-06-27T10:21:48.210Z,3.55
2018-06-27T10:24:21.610Z,4.08
2018-06-27T10:26:55.823Z,3.77
2018-06-27T10:29:28.507Z,3.70
2018-06-27T10:32:02.004Z,3.22
2018-06-27T10:34:35.296Z,3.00
2018-06-27T10:37:09.396Z,3.27
2018-06-27T10:39:43.812Z,3.47
2018-06-27T10:42:19.265Z,3.50
2018-06-27T10:44:54.515Z,3.43
2018-06-27T10:47:28.631Z,3.13
2018-06-27T10:50:02.537Z,3.27
2018-06-27T10:52:36.036Z,3.47
2018-06-27T10:55:14.245Z,3.60
2018-06-27T10:57:47.715Z,3.10
2018-06-27T11:00:21.244Z,3.20
2018-06-27T11:02:54.542Z,3.10
2018-06-27T11:05:29.063Z,2.90
2018-06-27T11:08:03.277Z,3.50
2018-06-27T11:10:37.582Z,3.07
2018-06-27T11:13:12.119Z,3.00
2018-06-27T11:15:47.293Z,3.20
2018-06-27T11:18:20.140Z,3.23
2018-06-27T11:20:54.254Z,3.10
2018-06-27T11:23:28.777Z,2.93
2018-06-27T11:26:02.997Z,2.90
2018-06-27T11:28:38.232Z,2.80
2018-06-27T11:31:13.269Z,2.90
2018-06-27T11:33:49.224Z,2.77
2018-06-27T11:36:24.672Z,2.80
2018-06-27T11:38:59.802Z,2.77
2018-06-27T11:41:35.221Z,2.80
2018-06-27T11:44:08.750Z,2.60
2018-06-27T11:46:44.502Z,2.43
2018-06-27T11:49:18.719Z,2.62
2018-06-27T11:51:52.934Z,2.70
2018-06-27T11:54:27.457Z,2.58
2018-06-27T11:57:00.633Z,2.50
2018-06-27T11:59:34.025Z,2.30
2018-06-27T12:02:08.978Z,2.20
2018-06-27T12:04:43.813Z,2.20
2018-06-27T12:07:18.123Z,2.35
2018-06-27T12:09:53.514Z,2.12
2018-06-27T12:12:26.973Z,2.20
2018-06-27T12:15:00.570Z,2.53
2018-06-27T12:17:33.733Z,2.50
2018-06-27T12:20:08.065Z,2.37
2018-06-27T12:22:41.578Z,2.33
2018-06-27T12:25:16.101Z,2.50
2018-06-27T12:27:51.238Z,2.43
2018-06-27T12:30:26.634Z,2.37
2018-06-27T12:33:00.285Z,2.57
2018-06-27T12:35:33.477Z,2.37
2018-06-27T12:38:07.078Z,2.20
2018-06-27T12:40:40.241Z,2.10
2018-06-27T12:43:14.691Z,2.10
2018-06-27T12:45:48.395Z,2.50
2018-06-27T12:48:22.610Z,2.27
2018-06-27T12:50:56.809Z,2.57
2018-06-27T12:53:31.247Z,2.53
2018-06-27T12:56:06.519Z,2.30
2018-06-27T12:58:40.194Z,2.17
2018-06-27T13:01:14.406Z,2.10
2018-06-27T13:03:50.875Z,2.10
2018-06-27T13:06:25.398Z,1.90
2018-06-27T13:08:59.935Z,2.20
2018-06-27T13:11:34.960Z,1.90
2018-06-27T13:14:10.269Z,2.07
2018-06-27T13:16:44.924Z,2.00
2018-06-27T13:19:19.982Z,2.10
2018-06-27T13:21:53.463Z,2.00
2018-06-27T13:24:28.903Z,2.27
2018-06-27T13:27:03.123Z,2.30
2018-06-27T13:29:35.699Z,2.00
2018-06-27T13:32:12.165Z,2.30
2018-06-27T13:34:46.695Z,2.27
2018-06-27T13:37:20.806Z,2.47
2018-06-27T13:39:55.089Z,2.50
2018-06-27T13:42:30.154Z,2.33
2018-06-27T13:45:04.008Z,2.50
2018-06-27T13:47:37.869Z,2.30
2018-06-27T13:50:12.584Z,2.17
2018-06-27T13:52:46.303Z,2.50
2018-06-27T13:55:21.029Z,2.53
2018-06-27T13:57:54.938Z,2.50
2018-06-27T14:00:29.256Z,2.87
2018-06-27T14:03:03.782Z,2.60
2018-06-27T14:05:38.108Z,2.43
2018-06-27T14:08:12.723Z,2.70
2018-06-27T14:10:46.017Z,3.30
2018-06-27T14:13:19.413Z,2.70
2018-06-27T14:15:53.531Z,2.73
2018-06-27T14:18:28.975Z,2.40
2018-06-27T14:21:04.419Z,2.80
2018-06-27T14:23:39.633Z,2.80
2018-06-27T14:26:15.079Z,2.70
2018-06-27T14:28:49.727Z,2.60
2018-06-27T14:31:25.170Z,3.07
2018-06-27T14:34:00.214Z,2.70
2018-06-27T14:36:33.807Z,2.60
2018-06-27T14:39:10.174Z,2.50
2018-06-27T14:41:45.621Z,2.90
2018-06-27T14:44:21.066Z,2.80
2018-06-27T14:46:56.199Z,2.50
2018-06-27T14:49:31.234Z,2.70
2018-06-27T14:52:05.360Z,3.13
2018-06-27T14:54:40.186Z,2.80
2018-06-27T14:57:14.296Z,2.60
2018-06-27T14:59:49.203Z,2.60
2018-06-27T15:02:23.750Z,2.50
2018-06-27T15:04:58.977Z,2.67
2018-06-27T15:07:33.716Z,2.60
2018-06-27T15:10:09.062Z,2.50
2018-06-27T15:12:42.118Z,2.33
2018-06-27T15:15:15.529Z,2.50
2018-06-27T15:17:50.174Z,2.73
2018-06-27T15:20:24.253Z,2.60
2018-06-27T15:22:59.011Z,2.50
2018-06-27T15:25:33.227Z,2.70
2018-06-27T15:28:08.671Z,2.63
2018-06-27T15:30:42.990Z,2.50
2018-06-27T15:33:18.205Z,2.80
2018-06-27T15:35:53.526Z,2.73
2018-06-27T15:38:27.173Z,2.67
2018-06-27T15:41:00.474Z,2.40
2018-06-27T15:43:34.888Z,2.70
2018-06-27T15:46:09.444Z,2.60
2018-06-27T15:48:42.813Z,2.40
2018-06-27T15:51:16.909Z,2.40
2018-06-27T15:53:50.297Z,2.70
2018-06-27T15:56:25.560Z,2.27
2018-06-27T15:58:59.262Z,2.40
2018-06-27T16:01:33.582Z,2.57
2018-06-27T16:04:08.104Z,2.57
2018-06-27T16:06:42.220Z,2.40
2018-06-27T16:09:15.818Z,2.40
2018-06-27T16:11:51.124Z,2.50
2018-06-27T16:14:24.966Z,2.20
2018-06-27T16:16:58.696Z,2.23
2018-06-27T16:19:33.197Z,2.10
2018-06-27T16:22:07.306Z,2.03
2018-06-27T16:24:42.548Z,2.20
2018-06-27T16:27:15.944Z,2.00
2018-06-27T16:29:50.661Z,2.07
2018-06-27T16:32:25.197Z,1.77
2018-06-27T16:34:59.513Z,2.10
2018-06-27T16:37:34.957Z,2.77
2018-06-27T16:40:10.194Z,2.07
2018-06-27T16:42:44.822Z,2.40
2018-06-27T16:45:19.243Z,2.00
2018-06-27T16:47:54.688Z,2.17
2018-06-27T16:50:29.753Z,2.10
2018-06-27T16:53:04.041Z,2.10
2018-06-27T16:55:38.434Z,2.23
2018-06-27T16:58:12.985Z,2.10
2018-06-27T17:00:47.855Z,2.10
2018-06-27T17:03:21.928Z,2.00
2018-06-27T17:05:56.025Z,2.17
2018-06-27T17:08:29.643Z,2.37
2018-06-27T17:11:03.858Z,2.10
2018-06-27T17:13:39.102Z,2.20
2018-06-27T17:16:14.136Z,2.27
2018-06-27T17:18:48.017Z,2.40
2018-06-27T17:21:22.462Z,2.67
2018-06-27T17:23:57.673Z,2.20
2018-06-27T17:26:32.123Z,1.90
2018-06-27T17:29:06.646Z,2.13
2018-06-27T17:31:40.896Z,1.90
2018-06-27T17:34:15.385Z,1.97
2018-06-27T17:36:49.703Z,2.10
2018-06-27T17:39:24.227Z,2.20
2018-06-27T17:41:59.333Z,2.10
2018-06-27T17:44:34.795Z,2.03
2018-06-27T17:47:08.177Z,2.00
2018-06-27T17:49:41.603Z,2.13
2018-06-27T17:52:15.203Z,2.10
2018-06-27T17:54:49.625Z,2.60
2018-06-27T17:57:23.840Z,2.00
2018-06-27T17:59:58.013Z,2.10
2018-06-27T18:02:32.450Z,2.53
2018-06-27T18:05:05.861Z,1.97
2018-06-27T18:07:40.499Z,2.63
2018-06-27T18:10:15.567Z,1.90
2018-06-27T18:12:49.648Z,2.80
2018-06-27T18:15:22.942Z,2.10
2018-06-27T18:17:56.032Z,2.00
2018-06-27T18:38:12.526Z,2.10
2018-06-27T18:40:43.283Z,2.27
2018-06-27T18:43:14.330Z,2.00
2018-06-27T18:45:44.758Z,2.23
2018-06-27T18:48:15.291Z,1.93
2018-06-27T18:50:43.110Z,2.10
2018-06-27T18:53:10.909Z,1.87
2018-06-27T18:55:38.763Z,2.10
2018-06-27T18:58:06.626Z,1.80
2018-06-27T19:00:34.442Z,1.90
2018-06-27T19:03:02.334Z,1.90
2018-06-27T19:15:33.590Z,2.00
2018-06-27T19:18:01.475Z,2.00
2018-06-27T19:20:29.290Z,2.07
2018-06-27T19:22:57.090Z,2.30
2018-06-27T19:25:24.899Z,2.07
2018-06-27T19:27:52.781Z,2.00
2018-06-27T19:30:21.794Z,2.10
2018-06-27T19:32:49.922Z,2.00
2018-06-27T19:35:26.375Z,2.17
2018-06-27T19:37:54.182Z,1.93
2018-06-27T19:40:21.970Z,2.17
2018-06-27T19:43:06.758Z,2.30
2018-06-27T19:45:39.710Z,2.13
2018-06-27T19:48:10.496Z,2.30
2018-06-27T19:50:41.318Z,2.20
2018-06-27T19:53:12.268Z,1.90
2018-06-27T19:55:46.657Z,2.20
2018-06-27T19:58:16.280Z,2.33
2018-06-27T20:00:47.584Z,2.10
2018-06-27T20:03:17.970Z,2.13
2018-06-27T20:05:48.556Z,2.23
2018-06-27T20:08:19.578Z,2.00
2018-06-27T20:10:49.244Z,2.27
2018-06-27T20:13:21.104Z,2.10
2018-06-27T20:15:50.561Z,2.20
2018-06-27T20:18:21.065Z,2.20
2018-06-27T20:20:52.286Z,2.10
2018-06-27T20:23:26.194Z,2.70
2018-06-27T20:25:56.725Z,2.20
2018-06-27T20:28:24.818Z,2.10
2018-06-27T20:30:52.722Z,2.10
2018-06-27T20:33:20.790Z,2.23
2018-06-27T20:35:48.585Z,2.07
2018-06-27T20:38:16.381Z,2.20
2018-06-27T20:40:44.196Z,2.00
2018-06-27T20:43:11.986Z,2.33
2018-06-27T20:45:46.110Z,2.10
2018-06-27T20:48:19.713Z,2.20
2018-06-27T20:50:49.788Z,2.30
2018-06-27T20:53:22.405Z,2.30
2018-06-27T20:55:53.626Z,2.10
2018-06-27T20:58:23.360Z,2.97
2018-06-27T21:00:55.774Z,2.47
2018-06-27T21:03:25.229Z,2.10
2018-06-27T21:05:55.669Z,2.10
2018-06-27T21:08:25.950Z,2.00
2018-06-27T21:10:56.620Z,2.10
2018-06-27T21:13:28.017Z,2.63
2018-06-27T21:16:03.414Z,2.53
2018-06-27T21:18:34.253Z,2.40
2018-06-27T21:21:04.477Z,2.20
2018-06-27T21:23:37.665Z,1.90
2018-06-27T21:26:07.887Z,2.10
2018-06-27T21:28:38.113Z,2.03
2018-06-27T21:31:10.051Z,2.30
2018-06-27T21:33:40.827Z,2.17
2018-06-27T21:36:13.169Z,2.57
2018-06-27T21:38:45.588Z,2.00
2018-06-27T21:41:17.726Z,2.30
2018-06-27T21:43:48.556Z,2.20
2018-06-27T21:46:19.410Z,2.10
2018-06-27T21:48:51.766Z,2.30
2018-06-27T21:51:22.095Z,2.57
2018-06-27T21:53:52.428Z,2.20
2018-06-27T21:56:24.266Z,2.87
2018-06-27T21:58:54.912Z,2.37
2018-06-27T22:01:25.756Z,2.73
2018-06-27T22:03:58.731Z,2.20
2018-06-27T22:06:28.457Z,2.40
2018-06-27T22:09:01.592Z,2.00
2018-06-27T22:11:33.905Z,2.00
2018-06-27T22:14:03.920Z,2.13
2018-06-27T22:16:36.879Z,2.03
2018-06-27T22:19:09.179Z,2.10
2018-06-27T22:21:43.246Z,2.20
2018-06-27T22:24:17.207Z,2.23
2018-06-27T22:26:46.809Z,2.07
2018-06-27T22:29:18.567Z,2.07
2018-06-27T22:31:49.843Z,1.80
2018-06-27T22:34:20.656Z,2.17
2018-06-27T22:36:51.894Z,2.10
2018-06-27T22:39:22.705Z,1.90
2018-06-27T22:41:53.227Z,2.17
2018-06-27T22:44:23.282Z,2.10
2018-06-27T22:46:54.922Z,2.00
2018-06-27T22:49:26.283Z,1.87
2018-06-27T22:51:56.197Z,1.70
2018-06-27T22:54:28.255Z,1.90
2018-06-27T22:56:57.841Z,2.00
2018-06-27T22:59:28.193Z,2.20
2018-06-27T23:01:58.314Z,2.20
2018-06-27T23:04:28.843Z,2.10
2018-06-27T23:07:00.137Z,2.23
2018-06-27T23:09:29.778Z,2.10
2018-06-27T23:12:00.842Z,2.03
2018-06-27T23:14:31.576Z,1.93
2018-06-27T23:17:03.949Z,2.03
2018-06-27T23:19:33.866Z,2.43
2018-06-27T23:22:04.495Z,1.93
2018-06-27T23:24:34.730Z,2.00
2018-06-27T23:27:05.618Z,2.27
2018-06-27T23:29:35.779Z,1.90
2018-06-27T23:32:07.392Z,1.80
2018-06-27T23:34:38.679Z,2.20
2018-06-27T23:37:09.825Z,2.00
2018-06-27T23:39:40.352Z,2.27
2018-06-27T23:42:10.885Z,2.07
2018-06-27T23:44:43.254Z,1.97
2018-06-27T23:47:14.091Z,2.20
2018-06-27T23:49:44.044Z,2.20
2018-06-27T23:52:14.450Z,2.00
2018-06-27T23:54:46.048Z,2.00
2018-06-27T23:57:18.665Z,2.03
2018-06-27T23:59:49.863Z,1.73
